sensor_id;sensor_type;location;lat;lon;timestamp;P1;durP1;ratioP1;P2;durP2;ratioP2
67041;SDS011;53949;47.790;18.750;2023-06-22T00:00:25;6.78;;;3.00;;
67041;SDS011;53949;47.790;18.750;2023-06-22T00:03:31;6.57;;;3.03;;
67041;SDS011;53949;47.790;18.750;2023-06-22T00:06:34;6.95;;;2.60;;
67041;SDS011;53949;47.790;18.750;2023-06-22T00:09:39;16.20;;;2.65;;
67041;SDS011;53949;47.790;18.750;2023-06-22T00:12:42;5.05;;;2.50;;
67041;SDS011;53949;47.790;18.750;2023-06-22T00:15:45;5.82;;;2.40;;
67041;SDS011;53949;47.790;18.750;2023-06-22T00:18:48;5.85;;;2.50;;
67041;SDS011;53949;47.790;18.750;2023-06-22T00:21:52;6.40;;;2.50;;
67041;SDS011;53949;47.790;18.750;2023-06-22T00:24:56;5.05;;;2.12;;
67041;SDS011;53949;47.790;18.750;2023-06-22T00:28:00;4.30;;;2.03;;
67041;SDS011;53949;47.790;18.750;2023-06-22T00:31:03;7.43;;;2.15;;
67041;SDS011;53949;47.790;18.750;2023-06-22T00:34:07;5.32;;;1.70;;
67041;SDS011;53949;47.790;18.750;2023-06-22T00:37:11;3.60;;;1.92;;
67041;SDS011;53949;47.790;18.750;2023-06-22T00:40:15;4.60;;;2.03;;
67041;SDS011;53949;47.790;18.750;2023-06-22T00:43:20;5.78;;;2.40;;
67041;SDS011;53949;47.790;18.750;2023-06-22T00:46:24;3.20;;;2.20;;
67041;SDS011;53949;47.790;18.750;2023-06-22T00:49:27;6.82;;;2.20;;
67041;SDS011;53949;47.790;18.750;2023-06-22T00:52:32;4.62;;;2.12;;
67041;SDS011;53949;47.790;18.750;2023-06-22T00:55:39;4.35;;;2.45;;
67041;SDS011;53949;47.790;18.750;2023-06-22T00:58:47;4.00;;;2.40;;
67041;SDS011;53949;47.790;18.750;2023-06-22T01:01:52;4.97;;;2.10;;
67041;SDS011;53949;47.790;18.750;2023-06-22T01:04:55;5.32;;;2.00;;
67041;SDS011;53949;47.790;18.750;2023-06-22T01:11:45;6.62;;;2.00;;
67041;SDS011;53949;47.790;18.750;2023-06-22T01:15:02;5.12;;;2.50;;
67041;SDS011;53949;47.790;18.750;2023-06-22T01:18:10;6.32;;;2.45;;
67041;SDS011;53949;47.790;18.750;2023-06-22T01:21:15;6.47;;;2.30;;
67041;SDS011;53949;47.790;18.750;2023-06-22T01:24:32;5.60;;;2.37;;
67041;SDS011;53949;47.790;18.750;2023-06-22T01:31:25;3.58;;;1.92;;
67041;SDS011;53949;47.790;18.750;2023-06-22T01:34:30;6.32;;;2.47;;
67041;SDS011;53949;47.790;18.750;2023-06-22T01:37:37;4.43;;;2.33;;
67041;SDS011;53949;47.790;18.750;2023-06-22T01:40:41;6.87;;;2.15;;
67041;SDS011;53949;47.790;18.750;2023-06-22T01:43:45;5.80;;;2.12;;
67041;SDS011;53949;47.790;18.750;2023-06-22T01:46:48;6.10;;;2.53;;
67041;SDS011;53949;47.790;18.750;2023-06-22T01:49:55;7.10;;;2.58;;
67041;SDS011;53949;47.790;18.750;2023-06-22T01:53:00;5.82;;;2.60;;
67041;SDS011;53949;47.790;18.750;2023-06-22T01:56:04;4.85;;;2.72;;
67041;SDS011;53949;47.790;18.750;2023-06-22T02:02:16;4.60;;;2.53;;
67041;SDS011;53949;47.790;18.750;2023-06-22T02:05:23;6.85;;;2.33;;
67041;SDS011;53949;47.790;18.750;2023-06-22T02:08:30;4.00;;;2.20;;
67041;SDS011;53949;47.790;18.750;2023-06-22T02:11:39;5.15;;;2.92;;
67041;SDS011;53949;47.790;18.750;2023-06-22T02:14:45;4.62;;;2.78;;
67041;SDS011;53949;47.790;18.750;2023-06-22T02:17:50;5.35;;;3.15;;
67041;SDS011;53949;47.790;18.750;2023-06-22T02:20:54;6.15;;;3.12;;
67041;SDS011;53949;47.790;18.750;2023-06-22T02:23:58;8.25;;;3.45;;
67041;SDS011;53949;47.790;18.750;2023-06-22T02:27:04;6.57;;;3.97;;
67041;SDS011;53949;47.790;18.750;2023-06-22T02:30:10;5.60;;;3.15;;
67041;SDS011;53949;47.790;18.750;2023-06-22T02:33:15;7.43;;;2.75;;
67041;SDS011;53949;47.790;18.750;2023-06-22T02:36:21;6.32;;;2.87;;
67041;SDS011;53949;47.790;18.750;2023-06-22T02:42:29;8.20;;;2.85;;
67041;SDS011;53949;47.790;18.750;2023-06-22T02:45:32;4.12;;;2.37;;
67041;SDS011;53949;47.790;18.750;2023-06-22T02:48:36;4.95;;;2.28;;
67041;SDS011;53949;47.790;18.750;2023-06-22T02:51:42;6.00;;;2.47;;
67041;SDS011;53949;47.790;18.750;2023-06-22T02:54:47;3.78;;;2.22;;
67041;SDS011;53949;47.790;18.750;2023-06-22T02:57:51;10.50;;;2.95;;
67041;SDS011;53949;47.790;18.750;2023-06-22T03:00:56;3.83;;;2.15;;
67041;SDS011;53949;47.790;18.750;2023-06-22T03:04:00;3.95;;;2.40;;
67041;SDS011;53949;47.790;18.750;2023-06-22T03:07:05;6.03;;;2.30;;
67041;SDS011;53949;47.790;18.750;2023-06-22T03:10:12;5.45;;;2.62;;
67041;SDS011;53949;47.790;18.750;2023-06-22T03:13:16;4.45;;;2.87;;
67041;SDS011;53949;47.790;18.750;2023-06-22T03:16:22;6.75;;;2.90;;
67041;SDS011;53949;47.790;18.750;2023-06-22T03:19:27;8.35;;;3.75;;
67041;SDS011;53949;47.790;18.750;2023-06-22T03:22:41;4.80;;;2.85;;
67041;SDS011;53949;47.790;18.750;2023-06-22T03:25:46;7.80;;;2.90;;
67041;SDS011;53949;47.790;18.750;2023-06-22T03:28:51;8.75;;;3.20;;
67041;SDS011;53949;47.790;18.750;2023-06-22T03:31:55;5.78;;;3.58;;
67041;SDS011;53949;47.790;18.750;2023-06-22T03:34:58;9.50;;;3.33;;
67041;SDS011;53949;47.790;18.750;2023-06-22T03:38:04;7.68;;;3.20;;
67041;SDS011;53949;47.790;18.750;2023-06-22T03:41:10;9.38;;;3.70;;
67041;SDS011;53949;47.790;18.750;2023-06-22T03:44:15;5.20;;;3.22;;
67041;SDS011;53949;47.790;18.750;2023-06-22T03:47:22;4.95;;;2.80;;
67041;SDS011;53949;47.790;18.750;2023-06-22T03:50:27;7.53;;;2.78;;
67041;SDS011;53949;47.790;18.750;2023-06-22T03:53:34;9.23;;;2.75;;
67041;SDS011;53949;47.790;18.750;2023-06-22T03:56:37;5.25;;;2.50;;
67041;SDS011;53949;47.790;18.750;2023-06-22T03:59:42;5.78;;;2.58;;
67041;SDS011;53949;47.790;18.750;2023-06-22T04:02:46;3.55;;;2.37;;
67041;SDS011;53949;47.790;18.750;2023-06-22T04:05:52;4.60;;;2.30;;
67041;SDS011;53949;47.790;18.750;2023-06-22T04:08:55;8.77;;;3.23;;
67041;SDS011;53949;47.790;18.750;2023-06-22T04:12:01;6.28;;;3.03;;
67041;SDS011;53949;47.790;18.750;2023-06-22T04:15:05;5.30;;;3.03;;
67041;SDS011;53949;47.790;18.750;2023-06-22T04:18:09;7.15;;;2.70;;
67041;SDS011;53949;47.790;18.750;2023-06-22T04:21:13;7.50;;;2.97;;
67041;SDS011;53949;47.790;18.750;2023-06-22T04:24:17;5.37;;;3.08;;
67041;SDS011;53949;47.790;18.750;2023-06-22T04:27:20;6.70;;;3.45;;
67041;SDS011;53949;47.790;18.750;2023-06-22T04:30:26;6.15;;;3.62;;
67041;SDS011;53949;47.790;18.750;2023-06-22T04:33:30;5.72;;;3.53;;
67041;SDS011;53949;47.790;18.750;2023-06-22T04:39:40;12.40;;;5.35;;
67041;SDS011;53949;47.790;18.750;2023-06-22T04:42:43;8.57;;;4.10;;
67041;SDS011;53949;47.790;18.750;2023-06-22T04:45:56;6.35;;;3.90;;
67041;SDS011;53949;47.790;18.750;2023-06-22T04:49:06;9.80;;;4.20;;
67041;SDS011;53949;47.790;18.750;2023-06-22T04:52:13;8.98;;;4.15;;
67041;SDS011;53949;47.790;18.750;2023-06-22T04:58:20;9.18;;;4.12;;
67041;SDS011;53949;47.790;18.750;2023-06-22T05:01:24;9.53;;;4.73;;
67041;SDS011;53949;47.790;18.750;2023-06-22T05:04:29;5.73;;;3.57;;
67041;SDS011;53949;47.790;18.750;2023-06-22T05:07:36;10.23;;;5.12;;
67041;SDS011;53949;47.790;18.750;2023-06-22T05:10:39;8.93;;;5.30;;
67041;SDS011;53949;47.790;18.750;2023-06-22T05:14:02;8.02;;;4.10;;
67041;SDS011;53949;47.790;18.750;2023-06-22T05:17:06;6.35;;;4.70;;
67041;SDS011;53949;47.790;18.750;2023-06-22T05:20:18;10.50;;;4.45;;
67041;SDS011;53949;47.790;18.750;2023-06-22T05:23:21;9.50;;;4.65;;
67041;SDS011;53949;47.790;18.750;2023-06-22T05:26:24;15.32;;;4.65;;
67041;SDS011;53949;47.790;18.750;2023-06-22T05:29:27;9.45;;;4.18;;
67041;SDS011;53949;47.790;18.750;2023-06-22T05:35:35;9.98;;;4.25;;
67041;SDS011;53949;47.790;18.750;2023-06-22T05:38:39;8.55;;;4.57;;
67041;SDS011;53949;47.790;18.750;2023-06-22T05:41:42;10.00;;;3.42;;
67041;SDS011;53949;47.790;18.750;2023-06-22T05:44:46;9.97;;;4.43;;
67041;SDS011;53949;47.790;18.750;2023-06-22T05:47:49;8.00;;;4.12;;
67041;SDS011;53949;47.790;18.750;2023-06-22T05:50:53;11.55;;;4.60;;
67041;SDS011;53949;47.790;18.750;2023-06-22T05:53:56;15.15;;;4.82;;
67041;SDS011;53949;47.790;18.750;2023-06-22T05:57:00;6.32;;;4.22;;
67041;SDS011;53949;47.790;18.750;2023-06-22T06:00:03;8.38;;;3.97;;
67041;SDS011;53949;47.790;18.750;2023-06-22T06:03:10;11.10;;;3.83;;
67041;SDS011;53949;47.790;18.750;2023-06-22T06:06:16;11.30;;;4.18;;
67041;SDS011;53949;47.790;18.750;2023-06-22T06:09:20;7.97;;;4.30;;
67041;SDS011;53949;47.790;18.750;2023-06-22T06:12:22;8.57;;;4.78;;
67041;SDS011;53949;47.790;18.750;2023-06-22T06:15:26;9.00;;;4.07;;
67041;SDS011;53949;47.790;18.750;2023-06-22T06:18:29;8.80;;;3.97;;
67041;SDS011;53949;47.790;18.750;2023-06-22T06:21:33;8.40;;;3.53;;
67041;SDS011;53949;47.790;18.750;2023-06-22T06:24:36;7.43;;;2.72;;
67041;SDS011;53949;47.790;18.750;2023-06-22T06:27:40;6.87;;;2.80;;
67041;SDS011;53949;47.790;18.750;2023-06-22T06:30:44;6.40;;;2.87;;
67041;SDS011;53949;47.790;18.750;2023-06-22T06:33:47;6.73;;;2.50;;
67041;SDS011;53949;47.790;18.750;2023-06-22T06:36:50;5.12;;;2.37;;
67041;SDS011;53949;47.790;18.750;2023-06-22T06:39:54;6.90;;;2.27;;
67041;SDS011;53949;47.790;18.750;2023-06-22T06:42:57;8.93;;;2.60;;
67041;SDS011;53949;47.790;18.750;2023-06-22T06:46:00;4.72;;;2.83;;
67041;SDS011;53949;47.790;18.750;2023-06-22T06:49:05;7.40;;;2.78;;
67041;SDS011;53949;47.790;18.750;2023-06-22T06:52:09;5.18;;;2.90;;
67041;SDS011;53949;47.790;18.750;2023-06-22T06:55:11;6.00;;;3.12;;
67041;SDS011;53949;47.790;18.750;2023-06-22T06:58:16;6.85;;;3.10;;
67041;SDS011;53949;47.790;18.750;2023-06-22T07:01:20;9.63;;;3.53;;
67041;SDS011;53949;47.790;18.750;2023-06-22T07:07:27;10.35;;;3.20;;
67041;SDS011;53949;47.790;18.750;2023-06-22T07:10:30;7.57;;;3.00;;
67041;SDS011;53949;47.790;18.750;2023-06-22T07:13:34;5.37;;;2.92;;
67041;SDS011;53949;47.790;18.750;2023-06-22T07:16:37;7.78;;;3.60;;
67041;SDS011;53949;47.790;18.750;2023-06-22T07:19:40;6.10;;;2.80;;
67041;SDS011;53949;47.790;18.750;2023-06-22T07:22:44;8.52;;;2.83;;
67041;SDS011;53949;47.790;18.750;2023-06-22T07:25:48;6.82;;;2.65;;
67041;SDS011;53949;47.790;18.750;2023-06-22T07:28:52;6.53;;;2.33;;
67041;SDS011;53949;47.790;18.750;2023-06-22T07:31:54;11.32;;;3.17;;
67041;SDS011;53949;47.790;18.750;2023-06-22T07:38:01;9.45;;;2.55;;
67041;SDS011;53949;47.790;18.750;2023-06-22T07:41:08;4.68;;;2.22;;
67041;SDS011;53949;47.790;18.750;2023-06-22T07:44:11;6.60;;;2.40;;
67041;SDS011;53949;47.790;18.750;2023-06-22T07:47:14;3.97;;;2.45;;
67041;SDS011;53949;47.790;18.750;2023-06-22T07:50:17;5.57;;;2.70;;
67041;SDS011;53949;47.790;18.750;2023-06-22T07:53:21;5.75;;;2.87;;
67041;SDS011;53949;47.790;18.750;2023-06-22T07:56:24;5.78;;;2.80;;
67041;SDS011;53949;47.790;18.750;2023-06-22T07:59:27;5.87;;;2.37;;
67041;SDS011;53949;47.790;18.750;2023-06-22T08:02:30;6.78;;;3.10;;
67041;SDS011;53949;47.790;18.750;2023-06-22T08:05:34;7.60;;;2.87;;
67041;SDS011;53949;47.790;18.750;2023-06-22T08:08:37;4.53;;;2.87;;
67041;SDS011;53949;47.790;18.750;2023-06-22T08:11:40;6.00;;;2.60;;
67041;SDS011;53949;47.790;18.750;2023-06-22T08:14:43;5.22;;;2.35;;
67041;SDS011;53949;47.790;18.750;2023-06-22T08:17:48;12.55;;;2.55;;
67041;SDS011;53949;47.790;18.750;2023-06-22T08:20:52;5.32;;;2.28;;
67041;SDS011;53949;47.790;18.750;2023-06-22T08:23:55;7.62;;;2.87;;
67041;SDS011;53949;47.790;18.750;2023-06-22T08:26:58;6.68;;;2.28;;
67041;SDS011;53949;47.790;18.750;2023-06-22T08:30:02;4.72;;;3.08;;
67041;SDS011;53949;47.790;18.750;2023-06-22T08:33:06;4.37;;;2.05;;
67041;SDS011;53949;47.790;18.750;2023-06-22T08:36:10;4.10;;;2.35;;
67041;SDS011;53949;47.790;18.750;2023-06-22T08:39:15;3.83;;;2.40;;
67041;SDS011;53949;47.790;18.750;2023-06-22T08:42:19;3.55;;;2.00;;
67041;SDS011;53949;47.790;18.750;2023-06-22T08:45:22;8.02;;;2.35;;
67041;SDS011;53949;47.790;18.750;2023-06-22T08:51:29;5.75;;;2.05;;
67041;SDS011;53949;47.790;18.750;2023-06-22T08:54:33;6.50;;;2.85;;
67041;SDS011;53949;47.790;18.750;2023-06-22T09:00:41;3.30;;;2.80;;
67041;SDS011;53949;47.790;18.750;2023-06-22T09:03:44;4.03;;;2.37;;
67041;SDS011;53949;47.790;18.750;2023-06-22T09:06:57;6.05;;;2.87;;
67041;SDS011;53949;47.790;18.750;2023-06-22T09:10:00;6.82;;;2.47;;
67041;SDS011;53949;47.790;18.750;2023-06-22T09:13:06;4.30;;;2.33;;
67041;SDS011;53949;47.790;18.750;2023-06-22T09:16:09;5.57;;;2.60;;
67041;SDS011;53949;47.790;18.750;2023-06-22T09:19:12;4.60;;;2.47;;
67041;SDS011;53949;47.790;18.750;2023-06-22T09:22:15;7.85;;;2.95;;
67041;SDS011;53949;47.790;18.750;2023-06-22T09:25:19;4.03;;;2.33;;
67041;SDS011;53949;47.790;18.750;2023-06-22T09:28:23;6.55;;;2.72;;
67041;SDS011;53949;47.790;18.750;2023-06-22T09:31:26;6.03;;;2.28;;
67041;SDS011;53949;47.790;18.750;2023-06-22T09:34:29;5.63;;;2.37;;
67041;SDS011;53949;47.790;18.750;2023-06-22T09:37:34;4.55;;;2.47;;
67041;SDS011;53949;47.790;18.750;2023-06-22T09:40:37;3.87;;;2.70;;
67041;SDS011;53949;47.790;18.750;2023-06-22T09:43:43;4.47;;;2.15;;
67041;SDS011;53949;47.790;18.750;2023-06-22T09:46:47;10.38;;;3.05;;
67041;SDS011;53949;47.790;18.750;2023-06-22T09:49:50;4.30;;;2.65;;
67041;SDS011;53949;47.790;18.750;2023-06-22T09:52:53;5.27;;;2.47;;
67041;SDS011;53949;47.790;18.750;2023-06-22T09:55:59;7.85;;;2.83;;
67041;SDS011;53949;47.790;18.750;2023-06-22T10:02:20;7.75;;;2.50;;
67041;SDS011;53949;47.790;18.750;2023-06-22T10:05:23;6.37;;;2.60;;
67041;SDS011;53949;47.790;18.750;2023-06-22T10:08:27;5.30;;;2.70;;
67041;SDS011;53949;47.790;18.750;2023-06-22T10:11:32;6.75;;;3.28;;
67041;SDS011;53949;47.790;18.750;2023-06-22T10:14:37;4.93;;;3.12;;
67041;SDS011;53949;47.790;18.750;2023-06-22T10:17:41;5.00;;;2.85;;
67041;SDS011;53949;47.790;18.750;2023-06-22T10:20:48;5.37;;;2.80;;
67041;SDS011;53949;47.790;18.750;2023-06-22T10:23:54;6.82;;;2.95;;
67041;SDS011;53949;47.790;18.750;2023-06-22T10:26:58;6.05;;;2.78;;
67041;SDS011;53949;47.790;18.750;2023-06-22T10:30:01;5.35;;;3.10;;
67041;SDS011;53949;47.790;18.750;2023-06-22T10:33:05;3.95;;;2.90;;
67041;SDS011;53949;47.790;18.750;2023-06-22T10:36:13;9.60;;;3.20;;
67041;SDS011;53949;47.790;18.750;2023-06-22T10:39:16;4.70;;;2.83;;
67041;SDS011;53949;47.790;18.750;2023-06-22T10:42:19;6.75;;;2.70;;
67041;SDS011;53949;47.790;18.750;2023-06-22T10:45:23;6.37;;;3.23;;
67041;SDS011;53949;47.790;18.750;2023-06-22T10:48:26;4.35;;;2.72;;
67041;SDS011;53949;47.790;18.750;2023-06-22T10:51:29;5.00;;;2.93;;
67041;SDS011;53949;47.790;18.750;2023-06-22T10:54:34;5.45;;;3.25;;
67041;SDS011;53949;47.790;18.750;2023-06-22T10:57:38;7.10;;;2.95;;
67041;SDS011;53949;47.790;18.750;2023-06-22T11:00:46;6.43;;;2.87;;
67041;SDS011;53949;47.790;18.750;2023-06-22T11:03:49;4.73;;;3.00;;
67041;SDS011;53949;47.790;18.750;2023-06-22T11:06:53;7.97;;;3.33;;
67041;SDS011;53949;47.790;18.750;2023-06-22T11:09:56;6.57;;;3.17;;
67041;SDS011;53949;47.790;18.750;2023-06-22T11:12:59;4.25;;;3.35;;
67041;SDS011;53949;47.790;18.750;2023-06-22T11:16:02;6.77;;;3.13;;
67041;SDS011;53949;47.790;18.750;2023-06-22T11:19:05;4.78;;;2.90;;
67041;SDS011;53949;47.790;18.750;2023-06-22T11:22:09;13.43;;;3.05;;
67041;SDS011;53949;47.790;18.750;2023-06-22T11:25:13;4.35;;;3.15;;
67041;SDS011;53949;47.790;18.750;2023-06-22T11:28:17;7.60;;;3.00;;
67041;SDS011;53949;47.790;18.750;2023-06-22T11:31:20;4.80;;;3.42;;
67041;SDS011;53949;47.790;18.750;2023-06-22T11:34:28;6.93;;;3.62;;
67041;SDS011;53949;47.790;18.750;2023-06-22T11:37:32;5.75;;;2.95;;
67041;SDS011;53949;47.790;18.750;2023-06-22T11:40:35;4.93;;;3.10;;
67041;SDS011;53949;47.790;18.750;2023-06-22T11:43:39;4.05;;;3.37;;
67041;SDS011;53949;47.790;18.750;2023-06-22T11:46:42;4.20;;;2.92;;
67041;SDS011;53949;47.790;18.750;2023-06-22T11:49:45;5.75;;;3.28;;
67041;SDS011;53949;47.790;18.750;2023-06-22T11:52:48;7.47;;;3.08;;
67041;SDS011;53949;47.790;18.750;2023-06-22T11:55:52;3.85;;;2.80;;
67041;SDS011;53949;47.790;18.750;2023-06-22T11:58:56;6.75;;;2.90;;
67041;SDS011;53949;47.790;18.750;2023-06-22T12:05:03;5.75;;;2.72;;
67041;SDS011;53949;47.790;18.750;2023-06-22T12:08:07;6.00;;;2.95;;
67041;SDS011;53949;47.790;18.750;2023-06-22T12:14:13;5.78;;;2.90;;
67041;SDS011;53949;47.790;18.750;2023-06-22T12:17:16;6.87;;;3.03;;
67041;SDS011;53949;47.790;18.750;2023-06-22T12:20:19;6.03;;;2.70;;
67041;SDS011;53949;47.790;18.750;2023-06-22T12:23:25;4.65;;;2.85;;
67041;SDS011;53949;47.790;18.750;2023-06-22T12:29:31;5.03;;;2.80;;
67041;SDS011;53949;47.790;18.750;2023-06-22T12:32:34;7.57;;;3.10;;
67041;SDS011;53949;47.790;18.750;2023-06-22T12:35:38;6.70;;;3.20;;
67041;SDS011;53949;47.790;18.750;2023-06-22T12:38:41;9.48;;;2.97;;
67041;SDS011;53949;47.790;18.750;2023-06-22T12:41:45;5.22;;;3.37;;
67041;SDS011;53949;47.790;18.750;2023-06-22T12:44:48;3.25;;;2.30;;
67041;SDS011;53949;47.790;18.750;2023-06-22T12:47:51;4.62;;;2.90;;
67041;SDS011;53949;47.790;18.750;2023-06-22T12:50:55;6.80;;;3.58;;
67041;SDS011;53949;47.790;18.750;2023-06-22T12:53:59;10.85;;;3.12;;
67041;SDS011;53949;47.790;18.750;2023-06-22T13:00:06;6.55;;;2.80;;
67041;SDS011;53949;47.790;18.750;2023-06-22T13:03:12;5.53;;;2.67;;
67041;SDS011;53949;47.790;18.750;2023-06-22T13:06:17;5.18;;;2.67;;
67041;SDS011;53949;47.790;18.750;2023-06-22T13:09:21;3.25;;;2.72;;
67041;SDS011;53949;47.790;18.750;2023-06-22T13:12:24;5.25;;;3.12;;
67041;SDS011;53949;47.790;18.750;2023-06-22T13:15:28;3.67;;;2.40;;
67041;SDS011;53949;47.790;18.750;2023-06-22T13:18:32;3.60;;;2.72;;
67041;SDS011;53949;47.790;18.750;2023-06-22T13:21:38;6.32;;;2.92;;
67041;SDS011;53949;47.790;18.750;2023-06-22T13:24:41;3.83;;;3.00;;
67041;SDS011;53949;47.790;18.750;2023-06-22T13:27:45;4.95;;;2.80;;
67041;SDS011;53949;47.790;18.750;2023-06-22T13:30:48;4.80;;;2.90;;
67041;SDS011;53949;47.790;18.750;2023-06-22T13:33:52;6.25;;;2.72;;
67041;SDS011;53949;47.790;18.750;2023-06-22T13:36:56;4.20;;;2.70;;
67041;SDS011;53949;47.790;18.750;2023-06-22T13:39:59;3.65;;;2.92;;
67041;SDS011;53949;47.790;18.750;2023-06-22T13:43:02;4.37;;;2.65;;
67041;SDS011;53949;47.790;18.750;2023-06-22T13:46:07;4.72;;;2.60;;
67041;SDS011;53949;47.790;18.750;2023-06-22T13:49:12;4.05;;;2.65;;
67041;SDS011;53949;47.790;18.750;2023-06-22T13:52:15;3.75;;;2.58;;
67041;SDS011;53949;47.790;18.750;2023-06-22T13:55:19;5.45;;;2.75;;
67041;SDS011;53949;47.790;18.750;2023-06-22T13:58:25;5.45;;;2.95;;
67041;SDS011;53949;47.790;18.750;2023-06-22T14:01:28;2.92;;;2.42;;
67041;SDS011;53949;47.790;18.750;2023-06-22T14:04:33;6.32;;;3.17;;
67041;SDS011;53949;47.790;18.750;2023-06-22T14:07:37;5.90;;;3.05;;
67041;SDS011;53949;47.790;18.750;2023-06-22T14:10:40;4.12;;;3.05;;
67041;SDS011;53949;47.790;18.750;2023-06-22T14:13:43;4.00;;;3.12;;
67041;SDS011;53949;47.790;18.750;2023-06-22T14:16:46;18.73;;;3.10;;
67041;SDS011;53949;47.790;18.750;2023-06-22T14:19:52;5.55;;;3.20;;
67041;SDS011;53949;47.790;18.750;2023-06-22T14:22:56;3.90;;;2.80;;
67041;SDS011;53949;47.790;18.750;2023-06-22T14:25:58;4.07;;;3.00;;
67041;SDS011;53949;47.790;18.750;2023-06-22T14:29:02;4.65;;;3.28;;
67041;SDS011;53949;47.790;18.750;2023-06-22T14:32:06;6.43;;;3.60;;
67041;SDS011;53949;47.790;18.750;2023-06-22T14:35:10;3.17;;;2.87;;
67041;SDS011;53949;47.790;18.750;2023-06-22T14:38:13;4.12;;;3.12;;
67041;SDS011;53949;47.790;18.750;2023-06-22T14:41:17;5.97;;;3.00;;
67041;SDS011;53949;47.790;18.750;2023-06-22T14:44:20;6.28;;;3.05;;
67041;SDS011;53949;47.790;18.750;2023-06-22T14:47:24;5.30;;;3.12;;
67041;SDS011;53949;47.790;18.750;2023-06-22T14:50:27;6.85;;;3.30;;
67041;SDS011;53949;47.790;18.750;2023-06-22T14:53:31;5.30;;;3.25;;
67041;SDS011;53949;47.790;18.750;2023-06-22T14:56:34;3.25;;;2.95;;
67041;SDS011;53949;47.790;18.750;2023-06-22T14:59:37;3.75;;;3.10;;
67041;SDS011;53949;47.790;18.750;2023-06-22T15:02:40;6.68;;;3.33;;
67041;SDS011;53949;47.790;18.750;2023-06-22T15:05:45;3.78;;;3.33;;
67041;SDS011;53949;47.790;18.750;2023-06-22T15:08:48;3.15;;;2.83;;
67041;SDS011;53949;47.790;18.750;2023-06-22T15:11:52;4.55;;;2.90;;
67041;SDS011;53949;47.790;18.750;2023-06-22T15:14:55;3.87;;;3.20;;
67041;SDS011;53949;47.790;18.750;2023-06-22T15:17:58;4.07;;;2.80;;
67041;SDS011;53949;47.790;18.750;2023-06-22T15:21:02;4.15;;;2.78;;
67041;SDS011;53949;47.790;18.750;2023-06-22T15:24:09;4.20;;;3.30;;
67041;SDS011;53949;47.790;18.750;2023-06-22T15:27:12;6.18;;;3.28;;
67041;SDS011;53949;47.790;18.750;2023-06-22T15:30:17;3.47;;;3.08;;
67041;SDS011;53949;47.790;18.750;2023-06-22T15:33:20;4.00;;;3.12;;
67041;SDS011;53949;47.790;18.750;2023-06-22T15:36:28;3.70;;;2.60;;
67041;SDS011;53949;47.790;18.750;2023-06-22T15:39:33;4.32;;;3.00;;
67041;SDS011;53949;47.790;18.750;2023-06-22T15:42:42;4.75;;;3.00;;
67041;SDS011;53949;47.790;18.750;2023-06-22T15:45:49;3.55;;;3.17;;
67041;SDS011;53949;47.790;18.750;2023-06-22T15:48:53;4.70;;;3.15;;
67041;SDS011;53949;47.790;18.750;2023-06-22T15:51:58;6.07;;;3.65;;
67041;SDS011;53949;47.790;18.750;2023-06-22T15:55:03;3.62;;;2.92;;
67041;SDS011;53949;47.790;18.750;2023-06-22T15:58:07;3.92;;;2.83;;
67041;SDS011;53949;47.790;18.750;2023-06-22T16:01:12;3.30;;;2.85;;
67041;SDS011;53949;47.790;18.750;2023-06-22T16:04:17;3.62;;;2.90;;
67041;SDS011;53949;47.790;18.750;2023-06-22T16:07:21;4.55;;;3.12;;
67041;SDS011;53949;47.790;18.750;2023-06-22T16:10:25;7.25;;;3.17;;
67041;SDS011;53949;47.790;18.750;2023-06-22T16:13:29;4.53;;;3.17;;
67041;SDS011;53949;47.790;18.750;2023-06-22T16:16:33;4.07;;;3.00;;
67041;SDS011;53949;47.790;18.750;2023-06-22T16:19:37;3.35;;;2.97;;
67041;SDS011;53949;47.790;18.750;2023-06-22T16:22:40;4.62;;;3.12;;
67041;SDS011;53949;47.790;18.750;2023-06-22T16:25:43;4.30;;;3.42;;
67041;SDS011;53949;47.790;18.750;2023-06-22T16:28:47;3.37;;;3.08;;
67041;SDS011;53949;47.790;18.750;2023-06-22T16:31:50;4.55;;;3.50;;
67041;SDS011;53949;47.790;18.750;2023-06-22T16:34:53;6.05;;;3.40;;
67041;SDS011;53949;47.790;18.750;2023-06-22T16:37:56;6.25;;;3.55;;
67041;SDS011;53949;47.790;18.750;2023-06-22T16:41:00;5.45;;;3.25;;
67041;SDS011;53949;47.790;18.750;2023-06-22T16:44:03;4.93;;;3.30;;
67041;SDS011;53949;47.790;18.750;2023-06-22T16:47:09;5.53;;;3.83;;
67041;SDS011;53949;47.790;18.750;2023-06-22T16:50:12;4.82;;;3.50;;
67041;SDS011;53949;47.790;18.750;2023-06-22T16:53:16;6.12;;;3.22;;
67041;SDS011;53949;47.790;18.750;2023-06-22T16:56:22;7.72;;;3.80;;
67041;SDS011;53949;47.790;18.750;2023-06-22T16:59:27;6.28;;;3.78;;
67041;SDS011;53949;47.790;18.750;2023-06-22T17:02:31;5.57;;;3.50;;
67041;SDS011;53949;47.790;18.750;2023-06-22T17:05:36;5.68;;;3.58;;
67041;SDS011;53949;47.790;18.750;2023-06-22T17:08:40;5.60;;;3.75;;
67041;SDS011;53949;47.790;18.750;2023-06-22T17:11:46;6.45;;;3.92;;
67041;SDS011;53949;47.790;18.750;2023-06-22T17:14:50;7.82;;;3.90;;
67041;SDS011;53949;47.790;18.750;2023-06-22T17:17:55;5.93;;;3.80;;
67041;SDS011;53949;47.790;18.750;2023-06-22T17:20:58;5.03;;;3.17;;
67041;SDS011;53949;47.790;18.750;2023-06-22T17:24:02;6.30;;;3.50;;
67041;SDS011;53949;47.790;18.750;2023-06-22T17:27:06;6.82;;;3.90;;
67041;SDS011;53949;47.790;18.750;2023-06-22T17:30:10;4.37;;;3.42;;
67041;SDS011;53949;47.790;18.750;2023-06-22T17:33:19;8.32;;;4.03;;
67041;SDS011;53949;47.790;18.750;2023-06-22T17:36:24;5.20;;;3.80;;
67041;SDS011;53949;47.790;18.750;2023-06-22T17:39:28;4.93;;;3.60;;
67041;SDS011;53949;47.790;18.750;2023-06-22T17:42:33;5.25;;;3.50;;
67041;SDS011;53949;47.790;18.750;2023-06-22T17:45:40;5.22;;;3.67;;
67041;SDS011;53949;47.790;18.750;2023-06-22T17:48:47;6.28;;;3.50;;
67041;SDS011;53949;47.790;18.750;2023-06-22T17:51:50;3.50;;;3.20;;
67041;SDS011;53949;47.790;18.750;2023-06-22T17:54:54;7.15;;;3.25;;
67041;SDS011;53949;47.790;18.750;2023-06-22T17:58:06;6.25;;;3.30;;
67041;SDS011;53949;47.790;18.750;2023-06-22T18:01:09;7.65;;;4.53;;
67041;SDS011;53949;47.790;18.750;2023-06-22T18:04:13;6.85;;;3.87;;
67041;SDS011;53949;47.790;18.750;2023-06-22T18:07:17;7.90;;;4.12;;
67041;SDS011;53949;47.790;18.750;2023-06-22T18:10:21;5.75;;;4.00;;
67041;SDS011;53949;47.790;18.750;2023-06-22T18:13:24;8.75;;;3.50;;
67041;SDS011;53949;47.790;18.750;2023-06-22T18:16:29;5.12;;;4.18;;
67041;SDS011;53949;47.790;18.750;2023-06-22T18:19:40;5.85;;;4.28;;
67041;SDS011;53949;47.790;18.750;2023-06-22T18:22:49;7.60;;;4.50;;
67041;SDS011;53949;47.790;18.750;2023-06-22T18:25:52;20.52;;;6.22;;
67041;SDS011;53949;47.790;18.750;2023-06-22T18:29:03;6.78;;;3.98;;
67041;SDS011;53949;47.790;18.750;2023-06-22T18:32:06;6.68;;;4.40;;
67041;SDS011;53949;47.790;18.750;2023-06-22T18:35:09;9.43;;;4.70;;
67041;SDS011;53949;47.790;18.750;2023-06-22T18:38:13;6.72;;;4.57;;
67041;SDS011;53949;47.790;18.750;2023-06-22T18:41:20;6.78;;;4.75;;
67041;SDS011;53949;47.790;18.750;2023-06-22T18:44:26;8.30;;;5.12;;
67041;SDS011;53949;47.790;18.750;2023-06-22T18:47:30;7.90;;;5.37;;
67041;SDS011;53949;47.790;18.750;2023-06-22T18:53:41;9.52;;;5.68;;
67041;SDS011;53949;47.790;18.750;2023-06-22T18:56:51;5.75;;;4.85;;
67041;SDS011;53949;47.790;18.750;2023-06-22T19:02:58;9.75;;;4.85;;
67041;SDS011;53949;47.790;18.750;2023-06-22T19:06:02;8.85;;;5.22;;
67041;SDS011;53949;47.790;18.750;2023-06-22T19:09:14;6.15;;;4.95;;